Rohrs, Nebraska
Current Conditions -  °F | °C
As of 6:55 PM on Wednesday 17 Dec 2014 (Local Time) from KAFK Reporting Station
Overcast Overcast  
Wind Chill: 20°   Ceiling: 8500
Heat Index: 26°   Visibility: 10mi
Dew Point: 17°   Wind: 6mph
Humidity: 68%   Direction: 70°ENE
Pressure: 30.24"   Gusts: NA
Location:  40.3314°N, 95.8994°W
Report Text: KAFK 180055Z AUTO 07005KT 10SM SCT070 OVC085 M03/M08 A3024 RMK AO2 T10311083
Loading
Personal Weather Stations






























Interactive Weather Map New forecast layout! Learn more

10-Day Weather Forecast

Advertisements
Track Severe Weather on mobile